sensor_id;sensor_type;location;lat;lon;timestamp;temperature;humidity
19728;DHT22;10015;52.530;13.390;2023-04-15T00:01:43;10.50;99.90
19728;DHT22;10015;52.530;13.390;2023-04-15T00:04:09;10.50;99.90
19728;DHT22;10015;52.530;13.390;2023-04-15T00:06:36;10.50;99.90
19728;DHT22;10015;52.530;13.390;2023-04-15T00:09:02;10.60;99.90
19728;DHT22;10015;52.530;13.390;2023-04-15T00:11:28;10.50;99.90
19728;DHT22;10015;52.530;13.390;2023-04-15T00:13:54;10.50;99.90
19728;DHT22;10015;52.530;13.390;2023-04-15T00:16:20;10.50;99.90
19728;DHT22;10015;52.530;13.390;2023-04-15T00:18:46;10.60;99.90
19728;DHT22;10015;52.530;13.390;2023-04-15T00:21:12;10.60;99.90
19728;DHT22;10015;52.530;13.390;2023-04-15T00:23:38;10.60;99.90
19728;DHT22;10015;52.530;13.390;2023-04-15T00:26:04;10.60;99.90
19728;DHT22;10015;52.530;13.390;2023-04-15T00:28:30;10.60;99.90
19728;DHT22;10015;52.530;13.390;2023-04-15T00:30:56;10.60;99.90
19728;DHT22;10015;52.530;13.390;2023-04-15T00:33:22;10.60;99.90
19728;DHT22;10015;52.530;13.390;2023-04-15T00:35:48;10.60;99.90
19728;DHT22;10015;52.530;13.390;2023-04-15T00:38:14;10.60;99.90
19728;DHT22;10015;52.530;13.390;2023-04-15T00:40:40;10.50;99.90
19728;DHT22;10015;52.530;13.390;2023-04-15T00:43:07;10.60;99.90
19728;DHT22;10015;52.530;13.390;2023-04-15T00:45:33;10.60;99.90
19728;DHT22;10015;52.530;13.390;2023-04-15T00:47:59;10.60;99.90
19728;DHT22;10015;52.530;13.390;2023-04-15T00:50:24;10.60;99.90
19728;DHT22;10015;52.530;13.390;2023-04-15T00:52:50;10.60;99.90
19728;DHT22;10015;52.530;13.390;2023-04-15T00:55:16;10.50;99.90
19728;DHT22;10015;52.530;13.390;2023-04-15T00:57:43;10.60;99.90
19728;DHT22;10015;52.530;13.390;2023-04-15T01:00:09;10.50;99.90
19728;DHT22;10015;52.530;13.390;2023-04-15T01:02:36;10.50;99.90
19728;DHT22;10015;52.530;13.390;2023-04-15T01:05:03;10.50;99.90
19728;DHT22;10015;52.530;13.390;2023-04-15T01:07:30;10.50;99.90
19728;DHT22;10015;52.530;13.390;2023-04-15T01:09:56;10.50;99.90
19728;DHT22;10015;52.530;13.390;2023-04-15T01:12:23;10.40;99.90
19728;DHT22;10015;52.530;13.390;2023-04-15T01:14:51;10.50;99.90
19728;DHT22;10015;52.530;13.390;2023-04-15T01:17:18;10.50;99.90
19728;DHT22;10015;52.530;13.390;2023-04-15T01:19:44;10.50;99.90
19728;DHT22;10015;52.530;13.390;2023-04-15T01:22:11;10.40;99.90
19728;DHT22;10015;52.530;13.390;2023-04-15T01:24:37;10.50;99.90
19728;DHT22;10015;52.530;13.390;2023-04-15T01:27:04;10.50;99.90
19728;DHT22;10015;52.530;13.390;2023-04-15T01:29:31;10.40;99.90
19728;DHT22;10015;52.530;13.390;2023-04-15T01:31:57;10.50;99.90
19728;DHT22;10015;52.530;13.390;2023-04-15T01:34:43;10.50;99.90
19728;DHT22;10015;52.530;13.390;2023-04-15T01:37:28;10.50;99.90
19728;DHT22;10015;52.530;13.390;2023-04-15T01:39:54;10.50;99.90
19728;DHT22;10015;52.530;13.390;2023-04-15T01:42:21;10.50;99.90
19728;DHT22;10015;52.530;13.390;2023-04-15T01:44:49;10.50;99.90
19728;DHT22;10015;52.530;13.390;2023-04-15T01:47:16;10.50;99.90
19728;DHT22;10015;52.530;13.390;2023-04-15T01:49:44;10.50;99.90
19728;DHT22;10015;52.530;13.390;2023-04-15T01:52:11;10.50;99.90
19728;DHT22;10015;52.530;13.390;2023-04-15T01:54:40;10.50;99.90
19728;DHT22;10015;52.530;13.390;2023-04-15T01:57:08;10.50;99.90
19728;DHT22;10015;52.530;13.390;2023-04-15T01:59:35;10.50;99.90
19728;DHT22;10015;52.530;13.390;2023-04-15T02:02:03;10.40;99.90
19728;DHT22;10015;52.530;13.390;2023-04-15T02:04:30;10.40;99.90
19728;DHT22;10015;52.530;13.390;2023-04-15T02:07:00;10.40;99.90
19728;DHT22;10015;52.530;13.390;2023-04-15T02:09:27;10.40;99.90
19728;DHT22;10015;52.530;13.390;2023-04-15T02:11:55;10.40;99.90
19728;DHT22;10015;52.530;13.390;2023-04-15T02:14:22;10.40;99.90
19728;DHT22;10015;52.530;13.390;2023-04-15T02:16:49;10.40;99.90
19728;DHT22;10015;52.530;13.390;2023-04-15T02:19:16;10.50;99.90
19728;DHT22;10015;52.530;13.390;2023-04-15T02:21:44;10.50;99.90
19728;DHT22;10015;52.530;13.390;2023-04-15T02:24:11;10.50;99.90
19728;DHT22;10015;52.530;13.390;2023-04-15T02:26:41;10.40;99.90
19728;DHT22;10015;52.530;13.390;2023-04-15T02:29:08;10.40;99.90
19728;DHT22;10015;52.530;13.390;2023-04-15T02:31:35;10.40;99.90
19728;DHT22;10015;52.530;13.390;2023-04-15T02:34:06;10.40;99.90
19728;DHT22;10015;52.530;13.390;2023-04-15T02:36:34;10.40;99.90
19728;DHT22;10015;52.530;13.390;2023-04-15T02:39:01;10.40;99.90
19728;DHT22;10015;52.530;13.390;2023-04-15T02:41:29;10.30;99.90
19728;DHT22;10015;52.530;13.390;2023-04-15T02:43:57;10.30;99.90
19728;DHT22;10015;52.530;13.390;2023-04-15T02:46:24;10.30;99.90
19728;DHT22;10015;52.530;13.390;2023-04-15T02:48:51;10.30;99.90
19728;DHT22;10015;52.530;13.390;2023-04-15T02:51:20;10.30;99.90
19728;DHT22;10015;52.530;13.390;2023-04-15T02:53:48;10.30;99.90
19728;DHT22;10015;52.530;13.390;2023-04-15T02:56:16;10.30;99.90
19728;DHT22;10015;52.530;13.390;2023-04-15T02:58:45;10.30;99.90
19728;DHT22;10015;52.530;13.390;2023-04-15T03:01:12;10.30;99.90
19728;DHT22;10015;52.530;13.390;2023-04-15T03:03:40;10.30;99.90
19728;DHT22;10015;52.530;13.390;2023-04-15T03:06:08;10.20;99.90
19728;DHT22;10015;52.530;13.390;2023-04-15T03:08:35;10.30;99.90
19728;DHT22;10015;52.530;13.390;2023-04-15T03:11:03;10.30;99.90
19728;DHT22;10015;52.530;13.390;2023-04-15T03:13:31;10.30;99.90
19728;DHT22;10015;52.530;13.390;2023-04-15T03:16:01;10.30;99.90
19728;DHT22;10015;52.530;13.390;2023-04-15T03:18:29;10.20;99.90
19728;DHT22;10015;52.530;13.390;2023-04-15T03:21:01;10.20;99.90
19728;DHT22;10015;52.530;13.390;2023-04-15T03:23:30;10.20;99.90
19728;DHT22;10015;52.530;13.390;2023-04-15T03:26:01;10.20;99.90
19728;DHT22;10015;52.530;13.390;2023-04-15T03:28:29;10.20;99.90
19728;DHT22;10015;52.530;13.390;2023-04-15T03:30:58;10.20;99.90
19728;DHT22;10015;52.530;13.390;2023-04-15T03:33:25;10.20;99.90
19728;DHT22;10015;52.530;13.390;2023-04-15T03:35:52;10.20;99.90
19728;DHT22;10015;52.530;13.390;2023-04-15T03:38:19;10.20;99.90
19728;DHT22;10015;52.530;13.390;2023-04-15T03:40:46;10.20;99.90
19728;DHT22;10015;52.530;13.390;2023-04-15T03:43:13;10.20;99.90
19728;DHT22;10015;52.530;13.390;2023-04-15T03:45:41;10.20;99.90
19728;DHT22;10015;52.530;13.390;2023-04-15T03:48:08;10.20;99.90
19728;DHT22;10015;52.530;13.390;2023-04-15T03:50:35;10.20;99.90
19728;DHT22;10015;52.530;13.390;2023-04-15T03:53:02;10.30;99.90
19728;DHT22;10015;52.530;13.390;2023-04-15T03:55:29;10.20;99.90
19728;DHT22;10015;52.530;13.390;2023-04-15T03:57:56;10.30;99.90
19728;DHT22;10015;52.530;13.390;2023-04-15T04:00:23;10.30;99.90
19728;DHT22;10015;52.530;13.390;2023-04-15T04:02:51;10.30;99.90
19728;DHT22;10015;52.530;13.390;2023-04-15T04:05:19;10.30;99.90
19728;DHT22;10015;52.530;13.390;2023-04-15T04:07:46;10.30;99.90
19728;DHT22;10015;52.530;13.390;2023-04-15T04:10:13;10.30;99.90
19728;DHT22;10015;52.530;13.390;2023-04-15T04:12:40;10.30;99.90
19728;DHT22;10015;52.530;13.390;2023-04-15T04:15:08;10.30;99.90
19728;DHT22;10015;52.530;13.390;2023-04-15T04:17:35;10.30;99.90
19728;DHT22;10015;52.530;13.390;2023-04-15T04:20:02;10.30;99.90
19728;DHT22;10015;52.530;13.390;2023-04-15T04:22:29;10.30;99.90
19728;DHT22;10015;52.530;13.390;2023-04-15T04:24:57;10.30;99.90
19728;DHT22;10015;52.530;13.390;2023-04-15T04:27:25;10.30;99.90
19728;DHT22;10015;52.530;13.390;2023-04-15T04:29:52;10.40;99.90
19728;DHT22;10015;52.530;13.390;2023-04-15T04:32:20;10.40;99.90
19728;DHT22;10015;52.530;13.390;2023-04-15T04:34:47;10.40;99.90
19728;DHT22;10015;52.530;13.390;2023-04-15T04:37:14;10.40;99.90
19728;DHT22;10015;52.530;13.390;2023-04-15T04:39:41;10.40;99.90
19728;DHT22;10015;52.530;13.390;2023-04-15T04:42:09;10.40;99.90
19728;DHT22;10015;52.530;13.390;2023-04-15T04:44:36;10.40;99.90
19728;DHT22;10015;52.530;13.390;2023-04-15T04:47:03;10.40;99.90
19728;DHT22;10015;52.530;13.390;2023-04-15T04:49:32;10.40;99.90
19728;DHT22;10015;52.530;13.390;2023-04-15T04:51:59;10.40;99.90
19728;DHT22;10015;52.530;13.390;2023-04-15T04:54:26;10.40;99.90
19728;DHT22;10015;52.530;13.390;2023-04-15T04:56:53;10.40;99.90
19728;DHT22;10015;52.530;13.390;2023-04-15T04:59:20;10.50;99.90
19728;DHT22;10015;52.530;13.390;2023-04-15T05:01:48;10.50;99.90
19728;DHT22;10015;52.530;13.390;2023-04-15T05:04:15;10.50;99.90
19728;DHT22;10015;52.530;13.390;2023-04-15T05:06:42;10.50;99.90
19728;DHT22;10015;52.530;13.390;2023-04-15T05:09:09;10.50;99.90
19728;DHT22;10015;52.530;13.390;2023-04-15T05:11:36;10.50;99.90
19728;DHT22;10015;52.530;13.390;2023-04-15T05:14:04;10.60;99.90
19728;DHT22;10015;52.530;13.390;2023-04-15T05:16:31;10.60;99.90
19728;DHT22;10015;52.530;13.390;2023-04-15T05:18:58;10.60;99.90
19728;DHT22;10015;52.530;13.390;2023-04-15T05:21:25;10.60;99.90
19728;DHT22;10015;52.530;13.390;2023-04-15T05:23:53;10.50;99.90
19728;DHT22;10015;52.530;13.390;2023-04-15T05:26:20;10.50;99.90
19728;DHT22;10015;52.530;13.390;2023-04-15T05:28:48;10.50;99.90
19728;DHT22;10015;52.530;13.390;2023-04-15T05:31:15;10.50;99.90
19728;DHT22;10015;52.530;13.390;2023-04-15T05:33:42;10.60;99.90
19728;DHT22;10015;52.530;13.390;2023-04-15T05:36:10;10.60;99.90
19728;DHT22;10015;52.530;13.390;2023-04-15T05:38:37;10.40;99.90
19728;DHT22;10015;52.530;13.390;2023-04-15T05:41:05;10.50;99.90
19728;DHT22;10015;52.530;13.390;2023-04-15T05:43:32;10.50;99.90
19728;DHT22;10015;52.530;13.390;2023-04-15T05:45:59;10.50;99.90
19728;DHT22;10015;52.530;13.390;2023-04-15T05:48:26;10.60;99.90
19728;DHT22;10015;52.530;13.390;2023-04-15T05:50:53;10.60;99.90
19728;DHT22;10015;52.530;13.390;2023-04-15T05:53:21;10.60;99.90
19728;DHT22;10015;52.530;13.390;2023-04-15T05:55:48;10.60;99.90
19728;DHT22;10015;52.530;13.390;2023-04-15T05:58:15;10.60;99.90
19728;DHT22;10015;52.530;13.390;2023-04-15T06:00:42;10.60;99.90
19728;DHT22;10015;52.530;13.390;2023-04-15T06:03:10;10.60;99.90
19728;DHT22;10015;52.530;13.390;2023-04-15T06:05:37;10.60;99.90
19728;DHT22;10015;52.530;13.390;2023-04-15T06:08:05;10.70;99.90
19728;DHT22;10015;52.530;13.390;2023-04-15T06:10:32;10.80;99.90
19728;DHT22;10015;52.530;13.390;2023-04-15T06:13:02;10.80;99.90
19728;DHT22;10015;52.530;13.390;2023-04-15T06:15:30;10.80;99.90
19728;DHT22;10015;52.530;13.390;2023-04-15T06:17:57;10.90;99.90
19728;DHT22;10015;52.530;13.390;2023-04-15T06:20:25;10.80;99.90
19728;DHT22;10015;52.530;13.390;2023-04-15T06:22:52;10.90;99.90
19728;DHT22;10015;52.530;13.390;2023-04-15T06:25:19;10.90;99.90
19728;DHT22;10015;52.530;13.390;2023-04-15T06:27:46;10.90;99.90
19728;DHT22;10015;52.530;13.390;2023-04-15T06:30:14;10.90;99.90
19728;DHT22;10015;52.530;13.390;2023-04-15T06:32:41;10.90;99.90
19728;DHT22;10015;52.530;13.390;2023-04-15T06:35:08;11.00;99.90
19728;DHT22;10015;52.530;13.390;2023-04-15T06:37:35;11.00;99.90
19728;DHT22;10015;52.530;13.390;2023-04-15T06:40:03;11.00;99.90
19728;DHT22;10015;52.530;13.390;2023-04-15T06:42:31;11.00;99.90
19728;DHT22;10015;52.530;13.390;2023-04-15T06:44:58;11.00;99.90
19728;DHT22;10015;52.530;13.390;2023-04-15T06:47:25;10.90;99.90
19728;DHT22;10015;52.530;13.390;2023-04-15T06:49:52;11.00;99.90
19728;DHT22;10015;52.530;13.390;2023-04-15T06:52:20;11.10;99.90
19728;DHT22;10015;52.530;13.390;2023-04-15T06:54:47;11.20;99.90
19728;DHT22;10015;52.530;13.390;2023-04-15T06:57:14;11.30;99.90
19728;DHT22;10015;52.530;13.390;2023-04-15T06:59:41;11.30;99.90
19728;DHT22;10015;52.530;13.390;2023-04-15T07:02:11;11.30;99.90
19728;DHT22;10015;52.530;13.390;2023-04-15T07:04:39;11.20;99.90
19728;DHT22;10015;52.530;13.390;2023-04-15T07:07:06;11.30;99.90
19728;DHT22;10015;52.530;13.390;2023-04-15T07:09:33;11.40;99.90
19728;DHT22;10015;52.530;13.390;2023-04-15T07:12:01;11.40;99.90
19728;DHT22;10015;52.530;13.390;2023-04-15T07:14:28;11.40;99.90
19728;DHT22;10015;52.530;13.390;2023-04-15T07:16:55;11.60;99.90
19728;DHT22;10015;52.530;13.390;2023-04-15T07:19:23;11.70;99.90
19728;DHT22;10015;52.530;13.390;2023-04-15T07:21:50;11.60;99.90
19728;DHT22;10015;52.530;13.390;2023-04-15T07:24:17;11.70;99.90
19728;DHT22;10015;52.530;13.390;2023-04-15T07:26:46;11.60;99.90
19728;DHT22;10015;52.530;13.390;2023-04-15T07:29:13;11.50;99.90
19728;DHT22;10015;52.530;13.390;2023-04-15T07:31:40;11.40;99.90
19728;DHT22;10015;52.530;13.390;2023-04-15T07:34:08;11.40;99.90
19728;DHT22;10015;52.530;13.390;2023-04-15T07:36:35;11.40;99.90
19728;DHT22;10015;52.530;13.390;2023-04-15T07:39:02;11.50;99.90
19728;DHT22;10015;52.530;13.390;2023-04-15T07:41:30;11.60;99.90
19728;DHT22;10015;52.530;13.390;2023-04-15T07:43:57;11.50;99.90
19728;DHT22;10015;52.530;13.390;2023-04-15T07:46:25;11.50;99.90
19728;DHT22;10015;52.530;13.390;2023-04-15T07:48:53;11.50;99.90
19728;DHT22;10015;52.530;13.390;2023-04-15T07:51:20;11.50;99.90
19728;DHT22;10015;52.530;13.390;2023-04-15T07:53:48;11.50;99.90
19728;DHT22;10015;52.530;13.390;2023-04-15T07:56:16;11.50;99.90
19728;DHT22;10015;52.530;13.390;2023-04-15T07:58:43;11.60;99.90
19728;DHT22;10015;52.530;13.390;2023-04-15T08:01:10;11.50;99.90
19728;DHT22;10015;52.530;13.390;2023-04-15T08:03:38;11.50;99.90
19728;DHT22;10015;52.530;13.390;2023-04-15T08:06:05;11.40;99.90
19728;DHT22;10015;52.530;13.390;2023-04-15T08:08:32;11.30;99.90
19728;DHT22;10015;52.530;13.390;2023-04-15T08:10:59;11.40;99.90
19728;DHT22;10015;52.530;13.390;2023-04-15T08:13:27;11.40;99.90
19728;DHT22;10015;52.530;13.390;2023-04-15T08:16:17;11.30;99.90
19728;DHT22;10015;52.530;13.390;2023-04-15T08:18:46;11.40;99.90
19728;DHT22;10015;52.530;13.390;2023-04-15T08:21:14;11.30;99.90
19728;DHT22;10015;52.530;13.390;2023-04-15T08:23:42;11.20;99.90
19728;DHT22;10015;52.530;13.390;2023-04-15T08:26:11;11.20;99.90
19728;DHT22;10015;52.530;13.390;2023-04-15T08:28:39;11.20;99.90
19728;DHT22;10015;52.530;13.390;2023-04-15T08:31:07;11.30;99.90
19728;DHT22;10015;52.530;13.390;2023-04-15T08:33:35;11.30;99.90
19728;DHT22;10015;52.530;13.390;2023-04-15T08:36:03;11.30;99.90
19728;DHT22;10015;52.530;13.390;2023-04-15T08:38:30;11.20;99.90
19728;DHT22;10015;52.530;13.390;2023-04-15T08:40:59;11.30;99.90
19728;DHT22;10015;52.530;13.390;2023-04-15T08:43:33;11.30;99.90
19728;DHT22;10015;52.530;13.390;2023-04-15T08:46:01;11.20;99.90
19728;DHT22;10015;52.530;13.390;2023-04-15T08:48:32;11.30;99.90
19728;DHT22;10015;52.530;13.390;2023-04-15T08:51:01;11.30;99.90
19728;DHT22;10015;52.530;13.390;2023-04-15T08:53:29;11.30;99.90
19728;DHT22;10015;52.530;13.390;2023-04-15T08:55:59;11.30;99.90
19728;DHT22;10015;52.530;13.390;2023-04-15T08:58:29;11.30;99.90
19728;DHT22;10015;52.530;13.390;2023-04-15T09:00:56;11.20;99.90
19728;DHT22;10015;52.530;13.390;2023-04-15T09:03:23;11.30;99.90
19728;DHT22;10015;52.530;13.390;2023-04-15T09:05:51;11.30;99.90
19728;DHT22;10015;52.530;13.390;2023-04-15T09:08:18;11.30;99.90
19728;DHT22;10015;52.530;13.390;2023-04-15T09:10:46;11.30;99.90
19728;DHT22;10015;52.530;13.390;2023-04-15T09:13:13;11.30;99.90
19728;DHT22;10015;52.530;13.390;2023-04-15T09:15:40;11.30;99.90
19728;DHT22;10015;52.530;13.390;2023-04-15T09:18:11;11.40;99.90
19728;DHT22;10015;52.530;13.390;2023-04-15T09:20:40;11.40;99.90
19728;DHT22;10015;52.530;13.390;2023-04-15T09:23:11;11.40;99.90
19728;DHT22;10015;52.530;13.390;2023-04-15T09:25:40;11.40;99.90
19728;DHT22;10015;52.530;13.390;2023-04-15T09:28:10;11.50;99.90
19728;DHT22;10015;52.530;13.390;2023-04-15T09:30:37;11.50;99.90
19728;DHT22;10015;52.530;13.390;2023-04-15T09:33:04;11.50;99.90
19728;DHT22;10015;52.530;13.390;2023-04-15T09:35:34;11.50;99.90
19728;DHT22;10015;52.530;13.390;2023-04-15T09:38:08;11.50;99.90
19728;DHT22;10015;52.530;13.390;2023-04-15T09:40:41;11.50;99.90
19728;DHT22;10015;52.530;13.390;2023-04-15T09:43:09;11.60;99.90
19728;DHT22;10015;52.530;13.390;2023-04-15T09:45:47;11.60;99.90
19728;DHT22;10015;52.530;13.390;2023-04-15T09:48:24;11.60;99.90
19728;DHT22;10015;52.530;13.390;2023-04-15T09:50:57;11.60;99.90
19728;DHT22;10015;52.530;13.390;2023-04-15T09:53:25;11.60;99.90
19728;DHT22;10015;52.530;13.390;2023-04-15T09:55:57;11.70;99.90
19728;DHT22;10015;52.530;13.390;2023-04-15T09:58:29;11.70;99.90
19728;DHT22;10015;52.530;13.390;2023-04-15T10:00:58;11.70;99.90
19728;DHT22;10015;52.530;13.390;2023-04-15T10:03:27;11.60;99.90
19728;DHT22;10015;52.530;13.390;2023-04-15T10:05:55;11.70;99.90
19728;DHT22;10015;52.530;13.390;2023-04-15T10:08:25;11.70;99.90
19728;DHT22;10015;52.530;13.390;2023-04-15T10:10:53;11.60;99.90
19728;DHT22;10015;52.530;13.390;2023-04-15T10:13:25;11.50;99.90
19728;DHT22;10015;52.530;13.390;2023-04-15T10:15:59;11.50;99.90
19728;DHT22;10015;52.530;13.390;2023-04-15T10:18:27;11.50;99.90
19728;DHT22;10015;52.530;13.390;2023-04-15T10:20:55;11.50;99.90
19728;DHT22;10015;52.530;13.390;2023-04-15T10:23:22;11.50;99.90
19728;DHT22;10015;52.530;13.390;2023-04-15T10:25:52;11.40;99.90
19728;DHT22;10015;52.530;13.390;2023-04-15T10:28:20;11.40;99.90
19728;DHT22;10015;52.530;13.390;2023-04-15T10:30:49;11.50;99.90
19728;DHT22;10015;52.530;13.390;2023-04-15T10:33:18;11.50;99.90
19728;DHT22;10015;52.530;13.390;2023-04-15T10:35:47;11.50;99.90
19728;DHT22;10015;52.530;13.390;2023-04-15T10:38:30;11.60;99.90
19728;DHT22;10015;52.530;13.390;2023-04-15T10:41:24;11.60;99.90
19728;DHT22;10015;52.530;13.390;2023-04-15T10:44:00;11.50;99.90
19728;DHT22;10015;52.530;13.390;2023-04-15T10:46:37;11.60;99.90
19728;DHT22;10015;52.530;13.390;2023-04-15T10:49:13;11.70;99.90
19728;DHT22;10015;52.530;13.390;2023-04-15T10:51:43;11.60;99.90
19728;DHT22;10015;52.530;13.390;2023-04-15T10:54:15;11.60;99.90
19728;DHT22;10015;52.530;13.390;2023-04-15T10:57:06;11.60;99.90
19728;DHT22;10015;52.530;13.390;2023-04-15T11:02:50;11.70;99.90
19728;DHT22;10015;52.530;13.390;2023-04-15T11:05:19;11.80;99.90
19728;DHT22;10015;52.530;13.390;2023-04-15T11:07:50;11.90;99.90
19728;DHT22;10015;52.530;13.390;2023-04-15T11:12:44;11.80;99.90
19728;DHT22;10015;52.530;13.390;2023-04-15T11:15:37;11.80;99.90
19728;DHT22;10015;52.530;13.390;2023-04-15T11:20:42;11.60;99.90
19728;DHT22;10015;52.530;13.390;2023-04-15T11:23:41;11.70;99.90
19728;DHT22;10015;52.530;13.390;2023-04-15T11:26:15;11.70;99.90
19728;DHT22;10015;52.530;13.390;2023-04-15T11:28:44;11.70;99.90
19728;DHT22;10015;52.530;13.390;2023-04-15T11:31:13;11.70;99.90
19728;DHT22;10015;52.530;13.390;2023-04-15T11:33:57;11.70;99.90
19728;DHT22;10015;52.530;13.390;2023-04-15T11:36:26;11.70;99.90
19728;DHT22;10015;52.530;13.390;2023-04-15T11:38:55;11.60;99.90
19728;DHT22;10015;52.530;13.390;2023-04-15T11:41:24;11.70;99.90
19728;DHT22;10015;52.530;13.390;2023-04-15T11:43:51;11.70;99.90
19728;DHT22;10015;52.530;13.390;2023-04-15T11:46:20;11.70;99.90
19728;DHT22;10015;52.530;13.390;2023-04-15T11:48:48;11.70;99.90
19728;DHT22;10015;52.530;13.390;2023-04-15T11:51:15;11.70;99.90
19728;DHT22;10015;52.530;13.390;2023-04-15T11:53:46;11.70;99.90
19728;DHT22;10015;52.530;13.390;2023-04-15T11:56:22;11.70;99.90
19728;DHT22;10015;52.530;13.390;2023-04-15T11:58:52;11.80;99.90
19728;DHT22;10015;52.530;13.390;2023-04-15T12:01:18;11.80;99.90
19728;DHT22;10015;52.530;13.390;2023-04-15T12:03:45;11.80;99.90
19728;DHT22;10015;52.530;13.390;2023-04-15T12:06:17;11.80;99.90
19728;DHT22;10015;52.530;13.390;2023-04-15T12:11:51;11.90;99.90
19728;DHT22;10015;52.530;13.390;2023-04-15T12:14:25;11.80;99.90
19728;DHT22;10015;52.530;13.390;2023-04-15T12:16:53;11.80;99.90
19728;DHT22;10015;52.530;13.390;2023-04-15T12:19:27;11.80;99.90
19728;DHT22;10015;52.530;13.390;2023-04-15T12:22:11;11.70;99.90
19728;DHT22;10015;52.530;13.390;2023-04-15T12:24:38;11.70;99.90
19728;DHT22;10015;52.530;13.390;2023-04-15T12:27:10;11.70;99.90
19728;DHT22;10015;52.530;13.390;2023-04-15T12:29:38;11.80;99.90
19728;DHT22;10015;52.530;13.390;2023-04-15T12:32:11;11.80;99.90
19728;DHT22;10015;52.530;13.390;2023-04-15T12:34:44;11.70;99.90
19728;DHT22;10015;52.530;13.390;2023-04-15T12:37:11;11.70;99.90
19728;DHT22;10015;52.530;13.390;2023-04-15T12:39:40;11.70;99.90
19728;DHT22;10015;52.530;13.390;2023-04-15T12:42:07;11.70;99.90
19728;DHT22;10015;52.530;13.390;2023-04-15T12:44:34;11.80;99.90
19728;DHT22;10015;52.530;13.390;2023-04-15T12:47:00;11.90;99.90
19728;DHT22;10015;52.530;13.390;2023-04-15T12:49:27;11.90;99.90
19728;DHT22;10015;52.530;13.390;2023-04-15T12:51:55;12.00;99.90
19728;DHT22;10015;52.530;13.390;2023-04-15T12:54:21;12.00;99.90
19728;DHT22;10015;52.530;13.390;2023-04-15T12:56:48;12.10;99.90
19728;DHT22;10015;52.530;13.390;2023-04-15T12:59:15;12.10;99.90
19728;DHT22;10015;52.530;13.390;2023-04-15T13:01:43;12.10;99.90
19728;DHT22;10015;52.530;13.390;2023-04-15T13:04:09;12.00;99.90
19728;DHT22;10015;52.530;13.390;2023-04-15T13:06:36;11.90;99.90
19728;DHT22;10015;52.530;13.390;2023-04-15T13:09:03;11.90;99.90
19728;DHT22;10015;52.530;13.390;2023-04-15T13:11:29;11.90;99.90
19728;DHT22;10015;52.530;13.390;2023-04-15T13:13:56;11.90;99.90
19728;DHT22;10015;52.530;13.390;2023-04-15T13:16:25;11.90;99.90
19728;DHT22;10015;52.530;13.390;2023-04-15T13:18:51;12.00;99.90
19728;DHT22;10015;52.530;13.390;2023-04-15T13:21:18;12.00;99.90
19728;DHT22;10015;52.530;13.390;2023-04-15T13:23:44;12.00;99.90
19728;DHT22;10015;52.530;13.390;2023-04-15T13:26:10;12.00;99.90
19728;DHT22;10015;52.530;13.390;2023-04-15T13:28:36;12.00;99.90
19728;DHT22;10015;52.530;13.390;2023-04-15T13:31:03;12.00;99.90
19728;DHT22;10015;52.530;13.390;2023-04-15T13:33:29;12.00;99.90
19728;DHT22;10015;52.530;13.390;2023-04-15T13:35:55;11.90;99.90
19728;DHT22;10015;52.530;13.390;2023-04-15T13:38:23;11.90;99.90
19728;DHT22;10015;52.530;13.390;2023-04-15T13:40:49;11.90;99.90
19728;DHT22;10015;52.530;13.390;2023-04-15T13:43:15;11.90;99.90
19728;DHT22;10015;52.530;13.390;2023-04-15T13:45:42;11.90;99.90
19728;DHT22;10015;52.530;13.390;2023-04-15T13:48:08;11.90;99.90
19728;DHT22;10015;52.530;13.390;2023-04-15T13:50:34;11.90;99.90
19728;DHT22;10015;52.530;13.390;2023-04-15T13:53:00;11.90;99.90
19728;DHT22;10015;52.530;13.390;2023-04-15T13:55:26;11.80;99.90
19728;DHT22;10015;52.530;13.390;2023-04-15T13:57:52;11.90;99.90
19728;DHT22;10015;52.530;13.390;2023-04-15T14:00:18;11.90;99.90
19728;DHT22;10015;52.530;13.390;2023-04-15T14:02:44;11.90;99.90
19728;DHT22;10015;52.530;13.390;2023-04-15T14:05:10;12.00;99.90
19728;DHT22;10015;52.530;13.390;2023-04-15T14:07:37;12.00;99.90
19728;DHT22;10015;52.530;13.390;2023-04-15T14:10:03;12.00;99.90
19728;DHT22;10015;52.530;13.390;2023-04-15T14:12:29;12.00;99.90
19728;DHT22;10015;52.530;13.390;2023-04-15T14:14:55;12.10;99.90
19728;DHT22;10015;52.530;13.390;2023-04-15T14:17:21;12.10;99.90
19728;DHT22;10015;52.530;13.390;2023-04-15T14:19:47;12.10;99.90
19728;DHT22;10015;52.530;13.390;2023-04-15T14:22:13;12.10;99.90
19728;DHT22;10015;52.530;13.390;2023-04-15T14:24:39;12.10;99.90
19728;DHT22;10015;52.530;13.390;2023-04-15T14:27:05;12.10;99.90
19728;DHT22;10015;52.530;13.390;2023-04-15T14:29:33;12.10;99.90
19728;DHT22;10015;52.530;13.390;2023-04-15T14:31:59;12.10;99.90
19728;DHT22;10015;52.530;13.390;2023-04-15T14:34:25;12.00;99.90
19728;DHT22;10015;52.530;13.390;2023-04-15T14:36:51;12.10;99.90
19728;DHT22;10015;52.530;13.390;2023-04-15T14:39:20;12.00;99.90
19728;DHT22;10015;52.530;13.390;2023-04-15T14:41:46;12.00;99.90
19728;DHT22;10015;52.530;13.390;2023-04-15T14:44:12;12.00;99.90
19728;DHT22;10015;52.530;13.390;2023-04-15T14:46:38;12.00;99.90
19728;DHT22;10015;52.530;13.390;2023-04-15T14:49:06;12.00;99.90
19728;DHT22;10015;52.530;13.390;2023-04-15T14:51:32;12.00;99.90
19728;DHT22;10015;52.530;13.390;2023-04-15T14:53:58;12.00;99.90
19728;DHT22;10015;52.530;13.390;2023-04-15T14:56:25;12.00;99.90
19728;DHT22;10015;52.530;13.390;2023-04-15T14:58:51;12.10;99.90
19728;DHT22;10015;52.530;13.390;2023-04-15T15:01:19;12.00;99.90
19728;DHT22;10015;52.530;13.390;2023-04-15T15:03:45;12.00;99.90
19728;DHT22;10015;52.530;13.390;2023-04-15T15:06:11;12.10;99.90
19728;DHT22;10015;52.530;13.390;2023-04-15T15:08:37;12.00;99.90
19728;DHT22;10015;52.530;13.390;2023-04-15T15:11:03;12.00;99.90
19728;DHT22;10015;52.530;13.390;2023-04-15T15:13:29;12.00;99.90
19728;DHT22;10015;52.530;13.390;2023-04-15T15:15:56;11.90;99.90
19728;DHT22;10015;52.530;13.390;2023-04-15T15:18:22;11.90;99.90
19728;DHT22;10015;52.530;13.390;2023-04-15T15:20:50;11.80;99.90
19728;DHT22;10015;52.530;13.390;2023-04-15T15:23:16;11.80;99.90
19728;DHT22;10015;52.530;13.390;2023-04-15T15:25:42;11.80;99.90
19728;DHT22;10015;52.530;13.390;2023-04-15T15:28:08;11.70;99.90
19728;DHT22;10015;52.530;13.390;2023-04-15T15:30:35;11.80;99.90
19728;DHT22;10015;52.530;13.390;2023-04-15T15:33:01;11.80;99.90